Powers, Oregon
Current Conditions -  °F | °C
As of 1:15 AM on Sunday 21 Dec 2014 (Local Time) from KOTH Reporting Station
Overcast Overcast  
Wind Chill: 57°   Ceiling: 500
Heat Index: 57°   Visibility: 2.5mi
Dew Point: 57°   Wind: 20mph
Humidity: 100%   Direction: 240°WSW
Pressure: 30.01"   Gusts: 25mph
Location:  42.88°N, 124.07°W
Report Text: KOTH 210915Z 24017G22KT 2 1/2SM OVC005 14/14 A3001 RMK AO1
Loading
Personal Weather Stations






























Interactive Weather Map New forecast layout! Learn more

10-Day Weather Forecast

Advertisements
Track Severe Weather on mobile